MAPA DE AEROPUERTO

INFORMACIÓN METAR y TAF

METAR FOR GCGM
ADDS - METARS form results

(1520 UTC 07 May 2021)
Data provider http://aviationweather.gov/metar/data/
 
METAR text: GCGM 071500Z 20005KT 150V250 9999 BKN030 22/15 Q1019 RMK R09/17004KT 120V230 ARP/17005KT 130V220
Conditions at: GCGM (LA GOMERA ARPT , ES) observed 1500 UTC 07 May 2021
Temperature: 22.0°C (72°F)
Dewpoint: 15.0°C (59°F) [RH = 65%]
Pressure (altimeter): 30.09 inches Hg (1019.0 mb)
Winds: from the SSW (200 degrees) at 6 MPH (5 knots; 2.6 m/s)
Visibility: 6 or more miles (10+ km)
Ceiling: 3000 feet AGL
Clouds: broken clouds at 3000 feet AGL
Weather: no significant weather observed at this time

METAR text: GCGM 071430Z 17004KT 100V240 9999 BKN030 21/14 Q1019 RMK R09/16004KT 080V230 ARP/17004KT 110V220
Conditions at: GCGM (LA GOMERA ARPT , ES) observed 1430 UTC 07 May 2021
Temperature: 21.0°C (70°F)
Dewpoint: 14.0°C (57°F) [RH = 64%]
Pressure (altimeter): 30.09 inches Hg (1019.0 mb)
Winds: from the S (170 degrees) at 5 MPH (4 knots; 2.1 m/s)
Visibility: 6 or more miles (10+ km)
Ceiling: 3000 feet AGL
Clouds: broken clouds at 3000 feet AGL
Weather: no significant weather observed at this time

Forecast for: GCGM (LA GOMERA ARPT , ES)
Text: TAF GCGM 071400Z 0715/0815 20006KT 9999 SCT030 TX23/0814Z TN18/0806Z
Forecast period: 1500 UTC 07 May 2021 to 1500 UTC 08 May 2021
Forecast type: FROM: standard forecast or significant change
Winds: from the SSW (200 degrees) at 7 MPH (6 knots; 3.1 m/s)
Visibility: 6 or more miles (10+ km)
Ceiling: at least 12,000 feet AGL
Clouds: scattered clouds at 3000 feet AGL
Weather: no significant weather forecast for this period